Time;durP1;ratioP1;P1;durP2;ratioP2;P2;SDS_P1;SDS_P2;PMS_P1;PMS_P2;Temp;Humidity;BMP_temperature;BMP_pressure;BME280_temperature;BME280_humidity;BME280_pressure;Samples;Min_cycle;Max_cycle;Signal;HPM_P1;HPM_P2
2022/02/12 00:00:27;;;;;;;4.38;1.85;;;-2.40;99.90;;;;;;4983491;28;20030;-69
2022/02/12 00:02:53;;;;;;;1.85;1.55;;;-2.40;99.90;;;;;;4985137;28;20031;-69
2022/02/12 00:05:20;;;;;;;3.10;1.85;;;-2.50;99.90;;;;;;4988560;28;20117;-69
2022/02/12 00:07:46;;;;;;;5.72;1.52;;;-2.50;99.90;;;;;;4989676;28;20148;-69
2022/02/12 00:10:12;;;;;;;4.50;2.92;;;-2.30;99.90;;;;;;4986804;28;20114;-69
2022/02/12 00:12:37;;;;;;;5.07;2.47;;;-2.30;99.90;;;;;;4983812;28;20487;-69
2022/02/12 00:15:03;;;;;;;4.65;2.20;;;-2.20;99.90;;;;;;4987758;28;20022;-69
2022/02/12 00:17:29;;;;;;;14.05;1.63;;;-2.10;99.90;;;;;;4990490;28;20029;-69
2022/02/12 00:19:55;;;;;;;6.15;3.25;;;-2.00;99.90;;;;;;4986561;28;20031;-69
2022/02/12 00:22:20;;;;;;;2.65;1.50;;;-2.10;99.90;;;;;;4987911;28;20485;-69
2022/02/12 00:24:46;;;;;;;2.35;1.52;;;-2.10;99.90;;;;;;4987106;28;20038;-69
2022/02/12 00:27:12;;;;;;;3.55;2.22;;;-2.10;99.90;;;;;;4987417;28;20181;-69
2022/02/12 00:29:37;;;;;;;4.35;1.73;;;-2.20;99.90;;;;;;5002173;28;20026;-69
2022/02/12 00:32:03;;;;;;;4.03;1.75;;;-1.80;99.90;;;;;;5001757;28;20030;-69
2022/02/12 00:34:29;;;;;;;2.80;1.40;;;-1.70;99.90;;;;;;4986711;28;20015;-69
2022/02/12 00:36:55;;;;;;;5.93;1.67;;;-1.80;99.90;;;;;;5003817;28;20479;-69
2022/02/12 00:39:20;;;;;;;2.08;1.80;;;-2.00;99.90;;;;;;4991946;28;20037;-69
2022/02/12 00:41:46;;;;;;;5.55;2.42;;;-2.10;99.90;;;;;;4983263;28;20505;-69
2022/02/12 00:44:11;;;;;;;4.47;2.85;;;-2.10;99.90;;;;;;4986358;28;20082;-69
2022/02/12 00:46:37;;;;;;;1.30;1.10;;;-2.20;99.90;;;;;;4988525;28;20033;-69
2022/02/12 00:49:04;;;;;;;5.63;1.73;;;-2.20;99.90;;;;;;4981794;28;20022;-69
2022/02/12 00:51:33;;;;;;;1.65;1.20;;;-2.30;99.90;;;;;;4988319;28;20478;-70
2022/02/12 00:53:59;;;;;;;1.98;1.52;;;-2.30;99.90;;;;;;4983385;28;20031;-69
2022/02/12 00:56:25;;;;;;;2.45;1.50;;;-2.10;99.90;;;;;;4986148;28;20038;-69
2022/02/12 00:58:52;;;;;;;1.73;1.48;;;-2.10;99.90;;;;;;4984965;28;20034;-69
2022/02/12 01:01:18;;;;;;;0.80;0.80;;;-1.80;99.90;;;;;;4985371;28;20027;-69
2022/02/12 01:03:44;;;;;;;1.45;1.20;;;-1.50;99.90;;;;;;5002324;28;20122;-69
2022/02/12 01:06:09;;;;;;;1.42;1.15;;;-1.10;99.90;;;;;;4984135;28;20101;-69
2022/02/12 01:08:35;;;;;;;2.40;1.52;;;-0.90;99.90;;;;;;4998835;28;20430;-69
2022/02/12 01:11:03;;;;;;;2.17;1.50;;;-0.80;99.90;;;;;;4982252;28;20543;-69
2022/02/12 01:13:29;;;;;;;2.00;1.13;;;-0.70;99.90;;;;;;4986706;28;20030;-69
2022/02/12 01:15:54;;;;;;;3.08;1.98;;;-0.50;99.90;;;;;;4983539;28;20028;-69
2022/02/12 01:18:20;;;;;;;0.80;0.80;;;-0.40;99.90;;;;;;4985919;28;20491;-69
2022/02/12 01:20:45;;;;;;;2.35;1.40;;;-0.30;99.90;;;;;;4984522;28;20074;-69
2022/02/12 01:23:11;;;;;;;2.72;1.33;;;-0.40;99.90;;;;;;4985305;28;20022;-69
2022/02/12 01:25:37;;;;;;;1.50;1.13;;;-0.20;99.90;;;;;;4986225;28;20026;-69
2022/02/12 01:28:02;;;;;;;0.80;0.80;;;-0.30;99.90;;;;;;4998167;28;20383;-69
2022/02/12 01:30:28;;;;;;;2.33;1.65;;;-0.30;99.90;;;;;;4986653;28;20055;-69
2022/02/12 01:32:54;;;;;;;1.08;0.98;;;-0.40;99.90;;;;;;4983338;28;20054;-69
2022/02/12 01:35:23;;;;;;;8.70;2.03;;;-0.50;99.90;;;;;;4986439;28;20424;-69
2022/02/12 01:37:49;;;;;;;3.10;1.67;;;-0.60;99.90;;;;;;4990623;28;20030;-69
2022/02/12 01:40:15;;;;;;;2.38;1.77;;;-0.80;99.90;;;;;;4985504;28;20034;-69
2022/02/12 01:42:41;;;;;;;1.98;1.10;;;-1.00;99.90;;;;;;4985182;28;20037;-69
2022/02/12 01:45:07;;;;;;;30.25;2.00;;;-1.10;99.90;;;;;;4983737;28;20046;-69
2022/02/12 01:47:32;;;;;;;1.83;1.15;;;-1.20;99.90;;;;;;5000427;28;20026;-69
2022/02/12 01:49:58;;;;;;;2.40;1.48;;;-1.40;99.90;;;;;;4983587;28;20025;-70
2022/02/12 01:52:27;;;;;;;1.50;1.05;;;-1.50;99.90;;;;;;4999175;28;20022;-70
2022/02/12 01:54:52;;;;;;;1.48;1.13;;;-1.60;99.90;;;;;;4988826;28;20025;-70
2022/02/12 01:57:18;;;;;;;2.88;2.05;;;-1.80;99.90;;;;;;4982812;28;20027;-69
2022/02/12 01:59:44;;;;;;;3.03;1.40;;;-1.90;99.90;;;;;;4985314;28;20022;-69
2022/02/12 02:02:09;;;;;;;6.68;2.03;;;-2.00;99.90;;;;;;4982721;28;20054;-69
2022/02/12 02:04:38;;;;;;;2.35;1.25;;;-2.00;99.90;;;;;;5001119;28;20229;-69
2022/02/12 02:07:04;;;;;;;2.38;1.73;;;-1.90;99.90;;;;;;4985248;28;20077;-69
2022/02/12 02:09:30;;;;;;;5.78;1.35;;;-2.00;99.90;;;;;;4985212;28;20121;-70
2022/02/12 02:11:56;;;;;;;3.33;1.55;;;-2.20;99.90;;;;;;4985495;28;20030;-69
2022/02/12 02:14:40;;;;;;;2.22;1.52;;;-2.40;99.90;;;;;;4987170;28;20081;-69
2022/02/12 02:17:07;;;;;;;2.45;1.42;;;-2.60;99.90;;;;;;4982008;28;20026;-69
2022/02/12 02:19:33;;;;;;;2.22;1.48;;;-2.60;99.90;;;;;;4982651;28;20437;-69
2022/02/12 02:22:00;;;;;;;2.72;1.75;;;-2.60;99.90;;;;;;5001114;28;20027;-69
2022/02/12 02:24:27;;;;;;;2.28;1.80;;;-2.40;99.90;;;;;;4984186;28;20118;-69
2022/02/12 02:27:18;;;;;;;1.65;1.23;;;-2.00;99.90;;;;;;4979313;28;20023;-69
2022/02/12 02:29:44;;;;;;;6.55;2.47;;;-1.70;99.90;;;;;;4985920;28;20090;-69
2022/02/12 02:32:12;;;;;;;2.97;1.30;;;-1.40;99.90;;;;;;4982522;28;20049;-69
2022/02/12 02:34:52;;;;;;;2.08;1.05;;;-1.20;99.90;;;;;;4985428;28;20057;-69
2022/02/12 02:37:18;;;;;;;;;;;-1.00;99.90;;;;;;4983773;28;20092;-69
2022/02/12 02:39:44;;;;;;;2.20;1.70;;;-0.90;99.90;;;;;;4982567;28;19924;-69
2022/02/12 02:42:10;;;;;;;5.50;2.55;;;-0.90;99.90;;;;;;4983473;28;20103;-69
2022/02/12 02:44:35;;;;;;;1.42;1.08;;;-0.80;99.90;;;;;;4985729;28;20026;-69
2022/02/12 02:47:32;;;;;;;4.10;1.65;;;-0.80;99.90;;;;;;4984947;28;20368;-69
2022/02/12 02:49:47;;;;;;;2.10;1.30;;;-0.80;99.90;;;;;;4991664;28;20030;-69
2022/02/12 02:57:40;;;;;;;4.10;1.45;;;-0.80;99.90;;;;;;4987403;28;20088;-69
2022/02/12 03:00:07;;;;;;;1.90;1.10;;;-0.80;99.90;;;;;;4985930;28;20034;-69
2022/02/12 03:02:32;;;;;;;6.80;1.73;;;-0.80;99.90;;;;;;4983067;28;20030;-69
2022/02/12 03:04:58;;;;;;;3.17;1.55;;;-0.70;99.90;;;;;;4984618;28;20030;-69
2022/02/12 03:07:23;;;;;;;2.95;1.42;;;-0.70;99.90;;;;;;4986041;28;20047;-69
2022/02/12 03:09:49;;;;;;;1.45;1.05;;;-0.70;99.90;;;;;;4987955;28;20027;-69
2022/02/12 03:12:14;;;;;;;1.52;1.33;;;-0.60;99.90;;;;;;4998190;28;20104;-69
2022/02/12 03:14:40;;;;;;;19.10;2.30;;;-0.50;99.90;;;;;;4988854;28;20037;-69
2022/02/12 03:17:05;;;;;;;2.72;1.75;;;-0.50;99.90;;;;;;4991684;28;20562;-69
2022/02/12 03:19:31;;;;;;;2.80;1.50;;;-0.50;99.90;;;;;;4982452;28;20061;-69
2022/02/12 03:21:57;;;;;;;1.33;1.02;;;-0.50;99.90;;;;;;4990839;28;20060;-69
2022/02/12 03:24:22;;;;;;;0.70;0.70;;;-0.50;99.90;;;;;;4983541;28;20053;-69
2022/02/12 03:26:48;;;;;;;3.80;1.80;;;-0.60;99.90;;;;;;4988549;28;20031;-69
2022/02/12 03:29:13;;;;;;;5.03;1.80;;;-0.60;99.90;;;;;;4987025;28;20116;-69
2022/02/12 03:31:39;;;;;;;4.63;1.58;;;-0.60;99.90;;;;;;4991349;28;20645;-69
2022/02/12 03:34:05;;;;;;;1.33;1.08;;;-0.50;99.90;;;;;;4993533;28;20049;-69
2022/02/12 03:36:31;;;;;;;3.10;1.70;;;-0.50;99.90;;;;;;4987981;28;20023;-69
2022/02/12 03:38:56;;;;;;;1.10;1.00;;;-0.60;99.90;;;;;;4983866;28;20522;-69
2022/02/12 03:41:22;;;;;;;2.30;1.40;;;-0.60;99.90;;;;;;4987386;28;20084;-69
2022/02/12 03:43:48;;;;;;;2.50;1.20;;;-0.70;99.90;;;;;;4988171;28;20030;-69
2022/02/12 03:46:14;;;;;;;1.40;1.15;;;-0.70;99.90;;;;;;5000606;28;20092;-69
2022/02/12 03:48:39;;;;;;;2.10;1.20;;;-0.80;99.90;;;;;;4986119;28;20026;-69
2022/02/12 03:51:05;;;;;;;3.05;2.08;;;-0.90;99.90;;;;;;5001382;28;20077;-69
2022/02/12 03:53:31;;;;;;;1.13;1.00;;;-0.90;99.90;;;;;;5002976;28;20125;-69
2022/02/12 03:55:56;;;;;;;1.33;1.00;;;-0.90;99.90;;;;;;5001793;28;20053;-69
2022/02/12 03:58:22;;;;;;;0.80;0.80;;;-0.90;99.90;;;;;;4991753;28;20036;-69
2022/02/12 04:00:49;;;;;;;1.75;1.08;;;-0.80;99.90;;;;;;4990892;28;20102;-69
2022/02/12 04:03:15;;;;;;;1.30;0.98;;;-0.80;99.90;;;;;;4985187;28;20506;-69
2022/02/12 04:05:46;;;;;;;1.67;1.08;;;-0.80;99.90;;;;;;4989133;28;20545;-69
2022/02/12 04:08:17;;;;;;;1.00;0.90;;;-0.80;99.90;;;;;;4986710;28;20089;-69
2022/02/12 04:10:44;;;;;;;1.13;1.00;;;-0.80;99.90;;;;;;4983508;28;20027;-69
2022/02/12 04:13:09;;;;;;;2.05;1.10;;;-0.80;99.90;;;;;;4985790;28;20029;-69
2022/02/12 04:15:35;;;;;;;2.58;1.50;;;-0.70;99.90;;;;;;4987946;28;20625;-69
2022/02/12 04:18:00;;;;;;;6.90;1.90;;;-0.80;99.90;;;;;;4983637;28;20030;-69
2022/02/12 04:20:27;;;;;;;5.32;2.25;;;-0.90;99.90;;;;;;4987789;28;20484;-69
2022/02/12 04:22:53;;;;;;;0.85;0.85;;;-0.90;99.90;;;;;;4980031;28;20442;-69
2022/02/12 04:25:21;;;;;;;1.52;1.25;;;-0.80;99.90;;;;;;4989885;28;20072;-69
2022/02/12 04:27:47;;;;;;;1.02;0.93;;;-0.80;99.90;;;;;;4981895;28;20030;-69
2022/02/12 04:30:13;;;;;;;1.20;1.10;;;-0.70;99.90;;;;;;4992312;28;20113;-69
2022/02/12 04:32:39;;;;;;;1.75;1.33;;;-0.70;99.90;;;;;;4986346;28;20022;-69
2022/02/12 04:35:07;;;;;;;1.73;1.25;;;-0.70;99.90;;;;;;4991145;28;20542;-69
2022/02/12 04:37:34;;;;;;;2.65;1.63;;;-0.70;99.90;;;;;;4987563;28;20030;-69
2022/02/12 04:39:59;;;;;;;1.63;1.40;;;-0.70;99.90;;;;;;4982780;28;20114;-69
2022/02/12 04:42:25;;;;;;;3.17;1.92;;;-0.80;99.90;;;;;;4985418;28;20146;-69
2022/02/12 04:44:53;;;;;;;1.55;1.33;;;-0.90;99.90;;;;;;4988083;28;20403;-69
2022/02/12 04:47:19;;;;;;;2.17;1.38;;;-0.70;99.90;;;;;;4984015;28;20030;-69
2022/02/12 04:49:46;;;;;;;1.08;0.93;;;-0.70;99.90;;;;;;4986790;28;20029;-69
2022/02/12 04:52:14;;;;;;;1.30;1.08;;;-0.80;99.90;;;;;;4998726;28;20035;-69
2022/02/12 04:54:40;;;;;;;2.88;1.58;;;-0.80;99.90;;;;;;4988018;28;20037;-69
2022/02/12 04:57:06;;;;;;;1.42;1.25;;;-0.80;99.90;;;;;;4985638;28;20320;-69
2022/02/12 04:59:32;;;;;;;6.53;2.22;;;-0.80;99.90;;;;;;4990447;28;20053;-69
2022/02/12 05:01:58;;;;;;;2.25;1.35;;;-0.90;99.90;;;;;;4986161;28;20026;-69
2022/02/12 05:04:24;;;;;;;1.13;1.02;;;-0.90;99.90;;;;;;4992163;28;20026;-69
2022/02/12 05:06:50;;;;;;;2.65;1.50;;;-0.90;99.90;;;;;;4991953;28;20065;-69
2022/02/12 05:09:16;;;;;;;4.53;2.72;;;-0.90;99.90;;;;;;4987991;28;20046;-69
2022/02/12 05:11:43;;;;;;;5.07;1.65;;;-1.00;99.90;;;;;;4986369;28;20454;-69
2022/02/12 05:14:10;;;;;;;5.35;2.08;;;-0.90;99.90;;;;;;4984802;28;20029;-69
2022/02/12 05:16:36;;;;;;;2.35;1.17;;;-0.90;99.90;;;;;;4985287;28;20029;-69
2022/02/12 05:19:02;;;;;;;4.35;2.15;;;-0.80;99.90;;;;;;4986783;28;20130;-69
2022/02/12 05:21:28;;;;;;;1.85;1.33;;;-0.80;99.90;;;;;;4986835;28;20424;-69
2022/02/12 05:23:53;;;;;;;3.47;1.77;;;-0.70;99.90;;;;;;4982930;28;20057;-69
2022/02/12 05:26:19;;;;;;;2.30;1.70;;;-0.70;99.90;;;;;;4984202;28;20027;-69
2022/02/12 05:28:45;;;;;;;1.88;1.25;;;-0.70;99.90;;;;;;4986299;28;20041;-69
2022/02/12 05:31:11;;;;;;;15.25;1.52;;;-0.60;99.90;;;;;;4990495;28;20081;-69
2022/02/12 05:33:37;;;;;;;15.00;2.20;;;-0.60;99.90;;;;;;4985987;28;20394;-69
2022/02/12 05:36:08;;;;;;;2.17;1.23;;;-0.70;99.90;;;;;;4990204;28;20026;-69
2022/02/12 05:38:36;;;;;;;17.38;1.50;;;-0.70;99.90;;;;;;4991587;28;20503;-69
2022/02/12 05:41:03;;;;;;;2.25;1.60;;;-0.70;99.90;;;;;;4984593;28;20540;-69
2022/02/12 05:43:31;;;;;;;4.30;1.70;;;-0.80;99.90;;;;;;4983051;28;20026;-69
2022/02/12 05:45:57;;;;;;;1.90;1.17;;;-0.80;99.90;;;;;;4988825;28;20065;-69
2022/02/12 05:48:23;;;;;;;1.25;1.13;;;-0.80;99.90;;;;;;4988563;28;20058;-69
2022/02/12 05:50:48;;;;;;;2.97;1.23;;;-0.90;99.90;;;;;;4987170;28;20026;-69
2022/02/12 05:53:14;;;;;;;1.77;1.10;;;-0.80;99.90;;;;;;4985629;28;20766;-69
2022/02/12 05:55:40;;;;;;;10.77;2.42;;;-0.80;99.90;;;;;;4988107;28;20022;-69
2022/02/12 05:58:05;;;;;;;1.00;0.90;;;-0.80;99.90;;;;;;4989937;28;20023;-69
2022/02/12 06:00:31;;;;;;;2.10;1.10;;;-0.80;99.90;;;;;;4986362;28;20037;-69
2022/02/12 06:02:57;;;;;;;1.23;1.13;;;-0.80;99.90;;;;;;4984825;28;20022;-69
2022/02/12 06:05:23;;;;;;;3.13;1.23;;;-0.80;99.90;;;;;;4984486;28;20057;-68
2022/02/12 06:07:49;;;;;;;2.63;1.20;;;-0.70;99.90;;;;;;4986783;28;20074;-69
2022/02/12 06:10:15;;;;;;;1.70;1.25;;;-0.80;99.90;;;;;;4996033;28;20029;-69
2022/02/12 06:12:41;;;;;;;1.63;1.38;;;-0.70;99.90;;;;;;4983611;28;20113;-69
2022/02/12 06:15:08;;;;;;;1.38;1.20;;;-0.60;99.90;;;;;;5000115;28;20123;-69
2022/02/12 06:17:33;;;;;;;3.15;1.10;;;-0.60;99.90;;;;;;4982960;28;20027;-69
2022/02/12 06:20:00;;;;;;;1.17;1.00;;;-0.60;99.90;;;;;;4987446;28;20026;-69
2022/02/12 06:22:27;;;;;;;2.00;1.27;;;-0.60;99.90;;;;;;4982408;28;20034;-69
2022/02/12 06:24:53;;;;;;;2.28;1.30;;;-0.10;99.90;;;;;;4999964;28;20029;-69
2022/02/12 06:27:19;;;;;;;2.95;1.33;;;-0.60;99.90;;;;;;4982445;28;20030;-69
2022/02/12 06:29:45;;;;;;;2.13;1.25;;;-0.70;99.90;;;;;;4987640;28;20106;-69
2022/02/12 06:32:10;;;;;;;2.45;1.65;;;-0.70;99.90;;;;;;5000591;28;20029;-69
2022/02/12 06:34:36;;;;;;;2.03;1.15;;;-0.70;99.90;;;;;;4981605;28;20382;-69
2022/02/12 06:37:02;;;;;;;5.43;1.88;;;-0.70;99.90;;;;;;4987383;28;20042;-68
2022/02/12 06:39:27;;;;;;;6.70;2.00;;;-0.60;99.90;;;;;;4983363;28;20491;-68
2022/02/12 06:41:53;;;;;;;5.50;1.90;;;-0.50;99.90;;;;;;4981714;28;20114;-68
2022/02/12 06:44:19;;;;;;;1.63;1.40;;;-0.40;99.90;;;;;;4987286;28;20125;-68
2022/02/12 06:46:45;;;;;;;0.80;0.80;;;-0.40;99.90;;;;;;4988893;28;20026;-68
2022/02/12 06:49:10;;;;;;;1.45;1.10;;;-0.40;99.90;;;;;;4983495;28;20023;-68
2022/02/12 06:51:36;;;;;;;4.70;1.58;;;-0.40;99.90;;;;;;4984663;28;20014;-68
2022/02/12 06:54:03;;;;;;;6.30;2.45;;;-0.40;99.90;;;;;;4983271;28;20426;-68
2022/02/12 06:56:28;;;;;;;2.00;1.52;;;-0.40;99.90;;;;;;4986545;28;20077;-68
2022/02/12 06:58:54;;;;;;;4.45;1.35;;;-0.30;99.90;;;;;;4993655;28;20034;-68
2022/02/12 07:01:20;;;;;;;1.17;0.95;;;-0.30;99.90;;;;;;4989288;28;20084;-68
2022/02/12 07:03:45;;;;;;;0.80;0.80;;;-0.30;99.90;;;;;;4997659;28;20029;-68
2022/02/12 07:06:11;;;;;;;2.03;1.20;;;-0.30;99.90;;;;;;5003524;28;20046;-68
2022/02/12 07:08:37;;;;;;;1.38;1.20;;;-0.20;99.90;;;;;;4989084;28;20136;-68
2022/02/12 07:11:02;;;;;;;1.27;1.08;;;-0.20;99.90;;;;;;4986087;28;20026;-68
2022/02/12 07:13:28;;;;;;;0.77;0.77;;;-0.20;99.90;;;;;;4989128;28;20022;-68
2022/02/12 07:15:56;;;;;;;1.85;1.20;;;-0.20;99.90;;;;;;5006639;28;20106;-68
2022/02/12 07:18:22;;;;;;;1.85;1.23;;;-0.20;99.90;;;;;;4994996;28;20374;-68
2022/02/12 07:20:47;;;;;;;2.40;1.33;;;-0.10;99.90;;;;;;5002575;28;20399;-68
2022/02/12 07:23:13;;;;;;;1.58;1.17;;;0.00;99.90;;;;;;5000547;28;20030;-68
2022/02/12 07:25:41;;;;;;;3.45;1.35;;;0.10;99.90;;;;;;4997806;28;20462;-68
2022/02/12 07:28:07;;;;;;;2.40;1.33;;;0.10;99.90;;;;;;4999667;28;20034;-68
2022/02/12 07:30:32;;;;;;;1.67;1.58;;;0.10;99.90;;;;;;4988758;28;20022;-68
2022/02/12 07:32:58;;;;;;;0.80;0.80;;;0.20;99.90;;;;;;4984906;28;20092;-68
2022/02/12 07:35:24;;;;;;;2.47;1.23;;;0.30;99.90;;;;;;5002481;28;20054;-68
2022/02/12 07:37:50;;;;;;;1.27;1.02;;;0.30;99.90;;;;;;5006879;28;20133;-68
2022/02/12 07:40:18;;;;;;;1.70;1.08;;;0.30;99.90;;;;;;4991316;28;20406;-68
2022/02/12 07:42:46;;;;;;;1.13;0.90;;;0.40;99.90;;;;;;4986483;28;20031;-68
2022/02/12 07:45:13;;;;;;;1.70;1.20;;;0.40;99.90;;;;;;4994675;28;20026;-68
2022/02/12 07:47:39;;;;;;;1.63;1.08;;;0.40;99.90;;;;;;4986515;28;20473;-68
2022/02/12 07:50:07;;;;;;;1.13;0.93;;;0.50;99.90;;;;;;4984662;28;20113;-68
2022/02/12 07:52:33;;;;;;;3.13;1.55;;;0.50;99.90;;;;;;4990330;28;20023;-69
2022/02/12 07:54:59;;;;;;;1.25;0.98;;;0.60;99.90;;;;;;4992107;28;20062;-68
2022/02/12 07:57:25;;;;;;;12.40;1.35;;;0.70;99.90;;;;;;4983703;28;20030;-68
2022/02/12 07:59:52;;;;;;;4.90;1.50;;;0.70;99.90;;;;;;5000373;28;20038;-68
2022/02/12 08:02:18;;;;;;;1.35;1.05;;;0.80;99.90;;;;;;5002430;28;20077;-68
2022/02/12 08:04:44;;;;;;;1.10;0.93;;;0.80;99.90;;;;;;4991080;28;20130;-68
2022/02/12 08:07:27;;;;;;;1.25;0.98;;;0.90;99.90;;;;;;5002457;28;20054;-68
2022/02/12 08:11:22;;;;;;;4.53;1.42;;;1.00;99.90;;;;;;4998357;28;20030;-68
2022/02/12 08:12:49;;;;;;;3.00;1.15;;;1.00;99.90;;;;;;4985661;28;20023;-68
2022/02/12 08:15:15;;;;;;;2.92;1.83;;;1.10;99.90;;;;;;4987331;28;20022;-68
2022/02/12 08:17:41;;;;;;;1.92;1.23;;;1.10;99.90;;;;;;4986127;28;20087;-68
2022/02/12 08:20:09;;;;;;;6.18;2.90;;;1.20;99.90;;;;;;4988454;28;20109;-69
2022/02/12 08:22:35;;;;;;;5.65;1.30;;;1.30;99.90;;;;;;4999441;28;20403;-68
2022/02/12 08:25:01;;;;;;;2.22;1.20;;;1.40;99.90;;;;;;4994544;28;20022;-68
2022/02/12 08:27:28;;;;;;;2.30;1.27;;;1.60;99.90;;;;;;4996156;28;20037;-68
2022/02/12 08:29:55;;;;;;;1.85;1.33;;;1.70;99.90;;;;;;4989765;28;20031;-68
2022/02/12 08:32:22;;;;;;;7.85;1.38;;;1.80;99.90;;;;;;4998240;28;20037;-68
2022/02/12 08:34:48;;;;;;;16.70;2.45;;;1.90;99.90;;;;;;4997371;28;20046;-68
2022/02/12 08:37:14;;;;;;;5.05;2.13;;;2.00;99.90;;;;;;5001519;28;20018;-68
2022/02/12 08:39:40;;;;;;;4.75;1.65;;;2.10;99.90;;;;;;4993498;28;20068;-68
2022/02/12 08:42:06;;;;;;;2.28;1.38;;;2.10;99.90;;;;;;4996974;28;20066;-68
2022/02/12 08:44:32;;;;;;;1.30;0.98;;;2.10;99.90;;;;;;4998862;28;20038;-68
2022/02/12 08:47:02;;;;;;;3.50;1.35;;;2.10;99.90;;;;;;4983894;28;20038;-68
2022/02/12 08:49:28;;;;;;;10.35;1.98;;;2.10;99.90;;;;;;4983276;28;20482;-68
2022/02/12 08:51:54;;;;;;;1.00;0.90;;;2.20;99.90;;;;;;4987737;28;20109;-68
2022/02/12 08:54:20;;;;;;;5.65;1.42;;;2.30;99.90;;;;;;4986798;28;20546;-68
2022/02/12 08:56:46;;;;;;;6.85;1.63;;;2.50;99.90;;;;;;4987238;28;20050;-68
2022/02/12 08:59:12;;;;;;;4.65;1.80;;;2.70;99.90;;;;;;4986529;28;20026;-68
2022/02/12 09:01:40;;;;;;;2.95;1.33;;;3.10;99.90;;;;;;4987002;28;20054;-68
2022/02/12 09:04:07;;;;;;;3.83;1.58;;;3.30;99.90;;;;;;4980646;28;20399;-68
2022/02/12 09:06:32;;;;;;;3.30;1.52;;;3.60;99.90;;;;;;4992399;28;20793;-68
2022/02/12 09:08:58;;;;;;;2.70;1.33;;;3.60;99.90;;;;;;4988039;28;20439;-68
2022/02/12 09:11:25;;;;;;;4.15;2.03;;;3.80;99.90;;;;;;4989116;28;20018;-68
2022/02/12 09:13:53;;;;;;;3.65;1.95;;;3.90;99.90;;;;;;4986163;28;20025;-68
2022/02/12 09:16:20;;;;;;;1.40;1.25;;;4.00;99.90;;;;;;4986544;28;20034;-68
2022/02/12 09:18:48;;;;;;;5.72;1.42;;;4.00;99.90;;;;;;4985656;28;20041;-68
2022/02/12 09:21:14;;;;;;;3.10;1.23;;;4.30;99.90;;;;;;5001849;28;20553;-68
2022/02/12 09:23:40;;;;;;;0.88;0.80;;;4.40;99.90;;;;;;4984927;28;20022;-68
2022/02/12 09:26:05;;;;;;;2.20;1.08;;;4.60;99.90;;;;;;4983597;28;20114;-68
2022/02/12 09:28:31;;;;;;;2.28;1.08;;;4.80;99.90;;;;;;4984561;28;20085;-68
2022/02/12 09:30:57;;;;;;;10.65;1.65;;;4.90;99.90;;;;;;4991347;28;20037;-68
2022/02/12 09:33:22;;;;;;;0.73;0.73;;;5.10;99.90;;;;;;4987211;28;20028;-68
2022/02/12 09:35:53;;;;;;;9.25;7.78;;;5.10;99.90;;;;;;4982260;28;20023;-68
2022/02/12 09:38:22;;;;;;;;;;;5.00;99.90;;;;;;4978578;28;20410;-68
2022/02/12 09:40:48;;;;;;;10.10;1.88;;;5.10;99.90;;;;;;4984059;28;19924;-68
2022/02/12 09:43:14;;;;;;;2.10;1.52;;;5.60;99.90;;;;;;4988457;28;20026;-68
2022/02/12 09:46:08;;;;;;;13.05;1.35;;;5.70;99.90;;;;;;4986853;28;20023;-68
2022/02/12 09:48:35;;;;;;;3.10;1.17;;;6.20;99.90;;;;;;4979798;28;20023;-68
2022/02/12 09:51:02;;;;;;;2.10;1.38;;;6.10;99.90;;;;;;4984073;28;20026;-68
2022/02/12 09:53:28;;;;;;;2.05;0.95;;;6.20;99.90;;;;;;4985048;28;20018;-68
2022/02/12 09:55:55;;;;;;;1.40;1.05;;;6.30;99.90;;;;;;4980618;28;20594;-68
2022/02/12 09:58:21;;;;;;;3.00;1.23;;;6.60;99.90;;;;;;4984100;28;20463;-68
2022/02/12 10:00:46;;;;;;;5.43;1.23;;;6.60;99.90;;;;;;4982240;28;20045;-68
2022/02/12 10:03:12;;;;;;;3.60;1.88;;;6.40;99.90;;;;;;4988992;28;20034;-68
2022/02/12 10:05:42;;;;;;;2.75;0.90;;;6.20;99.90;;;;;;4985335;28;20022;-68
2022/02/12 10:08:15;;;;;;;7.00;1.27;;;6.30;99.90;;;;;;4986091;28;20561;-68
2022/02/12 10:10:41;;;;;;;2.13;1.00;;;6.40;99.90;;;;;;4980227;28;20022;-68
2022/02/12 10:13:21;;;;;;;4.47;1.58;;;7.00;99.90;;;;;;4987256;28;20072;-68
2022/02/12 10:15:56;;;;;;;2.38;1.10;;;7.20;99.90;;;;;;4986124;28;20050;-68
2022/02/12 10:18:23;;;;;;;6.45;1.20;;;7.30;99.90;;;;;;4987305;28;20084;-68
2022/02/12 10:20:51;;;;;;;2.05;1.20;;;7.20;99.90;;;;;;4984834;28;20503;-68
2022/02/12 10:23:23;;;;;;;1.00;0.90;;;7.10;99.90;;;;;;4984909;28;20108;-69
2022/02/12 10:25:51;;;;;;;5.75;1.70;;;7.20;99.90;;;;;;4982203;28;20394;-70
2022/02/12 10:28:18;;;;;;;0.60;0.60;;;7.00;99.90;;;;;;4984479;28;20113;-68
2022/02/12 10:30:46;;;;;;;9.30;1.45;;;6.60;99.90;;;;;;4983598;28;20112;-68
2022/02/12 10:33:12;;;;;;;1.33;0.88;;;6.90;99.90;;;;;;4986480;28;20019;-68
2022/02/12 10:35:39;;;;;;;2.00;1.42;;;6.70;99.90;;;;;;4984331;28;20117;-68
2022/02/12 10:38:16;;;;;;;2.33;1.15;;;6.90;99.90;;;;;;5009617;28;20497;-68
2022/02/12 10:40:42;;;;;;;4.20;1.60;;;6.90;99.90;;;;;;4982521;28;20030;-69
2022/02/12 10:43:08;;;;;;;3.38;1.40;;;6.60;99.90;;;;;;4994009;28;20026;-68
2022/02/12 10:45:34;;;;;;;7.53;1.77;;;7.00;99.90;;;;;;4986215;28;20033;-68
2022/02/12 10:48:02;;;;;;;5.03;1.00;;;7.40;99.90;;;;;;4989257;28;20029;-68
2022/02/12 10:50:29;;;;;;;1.38;0.90;;;7.60;99.90;;;;;;4981263;28;20031;-68
2022/02/12 10:53:02;;;;;;;3.33;1.17;;;7.50;99.90;;;;;;4985348;28;20434;-68
2022/02/12 10:55:34;;;;;;;1.70;0.98;;;7.30;99.90;;;;;;4987301;28;20423;-69
2022/02/12 10:58:13;;;;;;;2.15;0.90;;;7.70;99.90;;;;;;4985626;28;20506;-69
2022/02/12 11:00:43;;;;;;;2.15;1.00;;;8.00;99.90;;;;;;5000052;28;20169;-69
2022/02/12 11:03:11;;;;;;;;;;;8.00;99.90;;;;;;4989614;28;20026;-69
2022/02/12 11:05:38;;;;;;;7.10;1.88;;;8.30;99.90;;;;;;4984531;28;19913;-69
2022/02/12 11:08:08;;;;;;;4.28;1.10;;;8.40;99.90;;;;;;4988501;28;20051;-69
2022/02/12 11:10:36;;;;;;;2.40;1.00;;;8.90;99.40;;;;;;4992847;28;20027;-69
2022/02/12 11:13:06;;;;;;;1.70;1.00;;;8.90;98.90;;;;;;4991098;28;20349;-68
2022/02/12 11:15:33;;;;;;;3.25;1.10;;;9.90;98.60;;;;;;4986096;28;20054;-69
2022/02/12 11:18:02;;;;;;;4.25;1.58;;;10.00;96.00;;;;;;4989472;28;20092;-69
2022/02/12 11:20:28;;;;;;;2.38;0.90;;;9.20;96.00;;;;;;4988706;28;20042;-69
2022/02/12 11:23:24;;;;;;;2.05;1.10;;;9.50;95.90;;;;;;4997090;28;20038;-69
2022/02/12 11:26:20;;;;;;;4.35;1.77;;;10.30;94.70;;;;;;4988869;28;20174;-69
2022/02/12 11:28:46;;;;;;;0.60;0.60;;;11.10;94.20;;;;;;4987406;28;20526;-69
2022/02/12 11:31:16;;;;;;;1.98;1.10;;;10.80;92.80;;;;;;4986474;28;20025;-68
2022/02/12 11:34:14;;;;;;;3.03;1.43;;;10.40;94.00;;;;;;4985568;28;20030;-69
2022/02/12 11:36:41;;;;;;;2.03;1.00;;;9.30;95.00;;;;;;4990428;28;20290;-69
2022/02/12 11:39:10;;;;;;;4.65;1.05;;;9.30;94.70;;;;;;4992807;28;20576;-69
2022/02/12 11:41:36;;;;;;;2.85;1.15;;;9.40;94.30;;;;;;4992898;28;20023;-69
2022/02/12 11:44:02;;;;;;;4.85;1.70;;;9.10;95.00;;;;;;4992537;28;20030;-69
2022/02/12 11:46:54;;;;;;;7.07;1.58;;;9.60;94.70;;;;;;4985449;28;20593;-69
2022/02/12 11:49:41;;;;;;;6.68;1.15;;;9.60;95.00;;;;;;4987015;28;20050;-69
2022/02/12 11:52:16;;;;;;;2.35;1.08;;;9.20;95.60;;;;;;4985545;28;20037;-69
2022/02/12 11:54:47;;;;;;;5.82;1.23;;;9.80;95.40;;;;;;4986649;28;20034;-69
2022/02/12 11:57:16;;;;;;;;;;;11.00;94.20;;;;;;4990333;28;20461;-69
2022/02/12 11:59:42;;;;;;;2.45;1.35;;;11.60;92.80;;;;;;4994132;28;19913;-69
2022/02/12 12:02:28;;;;;;;3.67;0.98;;;12.20;91.10;;;;;;4994365;28;20108;-69
2022/02/12 12:05:13;;;;;;;3.30;1.30;;;11.60;91.30;;;;;;4983127;28;20030;-69
2022/02/12 12:08:00;;;;;;;3.35;1.30;;;12.10;90.60;;;;;;4984948;28;20126;-69
2022/02/12 12:10:28;;;;;;;5.97;1.88;;;12.10;87.70;;;;;;4978421;28;20399;-69
2022/02/12 12:13:09;;;;;;;3.55;1.10;;;12.00;87.70;;;;;;4987009;28;20749;-69
2022/02/12 12:15:36;;;;;;;3.13;1.52;;;11.90;86.40;;;;;;4987100;28;20069;-69
2022/02/12 12:18:02;;;;;;;3.78;1.42;;;11.30;86.80;;;;;;4985424;28;20080;-69
2022/02/12 12:20:36;;;;;;;3.03;1.15;;;10.90;88.40;;;;;;4989161;28;20043;-69
2022/02/12 12:23:14;;;;;;;2.33;1.05;;;10.80;89.70;;;;;;4988145;28;20336;-69
2022/02/12 12:26:02;;;;;;;5.07;1.25;;;11.10;89.80;;;;;;4987036;28;20129;-69
2022/02/12 12:28:31;;;;;;;1.10;0.90;;;11.30;90.20;;;;;;4987194;28;20034;-69
2022/02/12 12:31:08;;;;;;;3.63;1.55;;;11.40;90.40;;;;;;4988614;28;20026;-69
2022/02/12 12:33:41;;;;;;;4.13;1.30;;;11.50;90.00;;;;;;4987336;28;20576;-69
2022/02/12 12:36:09;;;;;;;1.73;1.05;;;11.50;87.10;;;;;;4986056;28;20397;-69
2022/02/12 12:38:37;;;;;;;3.58;1.30;;;10.90;90.30;;;;;;4983786;28;20030;-69
2022/02/12 12:41:20;;;;;;;5.53;1.20;;;11.00;87.60;;;;;;4982496;28;20401;-69
2022/02/12 12:43:46;;;;;;;2.80;1.48;;;10.90;88.40;;;;;;4985933;28;20035;-69
2022/02/12 12:46:11;;;;;;;5.85;1.00;;;11.30;87.50;;;;;;4984833;28;20033;-69
2022/02/12 12:48:37;;;;;;;1.45;0.80;;;10.50;88.30;;;;;;4988063;28;20496;-69
2022/02/12 12:51:02;;;;;;;1.38;0.90;;;10.10;90.10;;;;;;4987956;28;20092;-69
2022/02/12 12:53:28;;;;;;;3.72;1.10;;;10.50;90.70;;;;;;4987285;28;20019;-69
2022/02/12 12:55:54;;;;;;;5.05;1.13;;;11.00;88.10;;;;;;4987781;28;20557;-69
2022/02/12 12:58:20;;;;;;;2.33;0.85;;;10.70;88.20;;;;;;4985797;28;20033;-69